sensor_id;sensor_type;location;lat;lon;timestamp;P1;durP1;ratioP1;P2;durP2;ratioP2
15002;SDS011;7597;53.590;10.020;2023-04-01T17:56:42;0.10;;;0.10;;
15002;SDS011;7597;53.590;10.020;2023-04-01T17:59:16;0.20;;;0.20;;
15002;SDS011;7597;53.590;10.020;2023-04-01T18:01:44;0.10;;;0.10;;
15002;SDS011;7597;53.590;10.020;2023-04-01T18:04:15;0.00;;;0.00;;
15002;SDS011;7597;53.590;10.020;2023-04-01T18:09:18;2.90;;;0.70;;
15002;SDS011;7597;53.590;10.020;2023-04-01T18:17:03;0.40;;;0.40;;
15002;SDS011;7597;53.590;10.020;2023-04-01T18:19:36;0.40;;;0.40;;
15002;SDS011;7597;53.590;10.020;2023-04-01T18:22:09;0.40;;;0.32;;
15002;SDS011;7597;53.590;10.020;2023-04-01T18:24:35;0.00;;;0.00;;
15002;SDS011;7597;53.590;10.020;2023-04-01T18:27:03;0.08;;;0.08;;
15002;SDS011;7597;53.590;10.020;2023-04-01T18:29:37;0.35;;;0.30;;
15002;SDS011;7597;53.590;10.020;2023-04-01T18:32:08;0.13;;;0.13;;
15002;SDS011;7597;53.590;10.020;2023-04-01T18:37:14;0.50;;;0.30;;
15002;SDS011;7597;53.590;10.020;2023-04-01T18:39:40;0.13;;;0.13;;
15002;SDS011;7597;53.590;10.020;2023-04-01T18:44:47;0.77;;;0.50;;
15002;SDS011;7597;53.590;10.020;2023-04-01T18:49:52;0.85;;;0.50;;
15002;SDS011;7597;53.590;10.020;2023-04-01T18:55:17;0.35;;;0.35;;
15002;SDS011;7597;53.590;10.020;2023-04-01T18:57:19;0.70;;;0.70;;
15002;SDS011;7597;53.590;10.020;2023-04-01T18:59:50;1.77;;;1.52;;
15002;SDS011;7597;53.590;10.020;2023-04-01T19:02:29;0.10;;;0.10;;
15002;SDS011;7597;53.590;10.020;2023-04-01T19:05:02;0.15;;;0.15;;
15002;SDS011;7597;53.590;10.020;2023-04-01T19:07:39;0.60;;;0.60;;
15002;SDS011;7597;53.590;10.020;2023-04-01T19:10:00;0.10;;;0.10;;
15002;SDS011;7597;53.590;10.020;2023-04-01T19:12:32;0.00;;;0.00;;
15002;SDS011;7597;53.590;10.020;2023-04-01T19:15:21;0.00;;;0.00;;
15002;SDS011;7597;53.590;10.020;2023-04-01T19:17:50;0.65;;;0.65;;
15002;SDS011;7597;53.590;10.020;2023-04-01T19:20:18;0.05;;;0.05;;
15002;SDS011;7597;53.590;10.020;2023-04-01T19:25:32;9.53;;;5.37;;
15002;SDS011;7597;53.590;10.020;2023-04-01T19:30:36;10.07;;;6.10;;
15002;SDS011;7597;53.590;10.020;2023-04-01T19:33:07;9.50;;;6.05;;
15002;SDS011;7597;53.590;10.020;2023-04-01T19:38:38;10.03;;;6.03;;
15002;SDS011;7597;53.590;10.020;2023-04-01T19:41:14;9.23;;;5.78;;
15002;SDS011;7597;53.590;10.020;2023-04-01T19:43:44;7.45;;;5.78;;
15002;SDS011;7597;53.590;10.020;2023-04-01T19:46:30;8.50;;;5.57;;
15002;SDS011;7597;53.590;10.020;2023-04-01T19:49:05;8.70;;;4.95;;
15002;SDS011;7597;53.590;10.020;2023-04-01T19:52:05;8.85;;;4.85;;
15002;SDS011;7597;53.590;10.020;2023-04-01T19:54:20;8.43;;;4.60;;
15002;SDS011;7597;53.590;10.020;2023-04-01T19:56:47;8.82;;;4.93;;
15002;SDS011;7597;53.590;10.020;2023-04-01T20:04:22;8.02;;;5.07;;
15002;SDS011;7597;53.590;10.020;2023-04-01T20:06:53;7.30;;;4.80;;
15002;SDS011;7597;53.590;10.020;2023-04-01T20:12:08;6.40;;;4.47;;
15002;SDS011;7597;53.590;10.020;2023-04-01T20:14:38;7.40;;;4.68;;
15002;SDS011;7597;53.590;10.020;2023-04-01T20:17:08;7.10;;;4.47;;
15002;SDS011;7597;53.590;10.020;2023-04-01T20:19:35;8.13;;;4.70;;
15002;SDS011;7597;53.590;10.020;2023-04-01T20:22:04;7.53;;;4.70;;
15002;SDS011;7597;53.590;10.020;2023-04-01T20:24:34;6.22;;;4.12;;
15002;SDS011;7597;53.590;10.020;2023-04-01T20:27:09;6.55;;;4.12;;
15002;SDS011;7597;53.590;10.020;2023-04-01T20:29:41;7.57;;;4.60;;
15002;SDS011;7597;53.590;10.020;2023-04-01T20:32:15;7.32;;;4.43;;
15002;SDS011;7597;53.590;10.020;2023-04-01T20:34:45;9.52;;;5.00;;
15002;SDS011;7597;53.590;10.020;2023-04-01T20:37:15;9.07;;;4.93;;
15002;SDS011;7597;53.590;10.020;2023-04-01T20:43:23;10.55;;;5.82;;
15002;SDS011;7597;53.590;10.020;2023-04-01T20:48:23;10.30;;;5.65;;
15002;SDS011;7597;53.590;10.020;2023-04-01T20:50:34;6.80;;;4.87;;
15002;SDS011;7597;53.590;10.020;2023-04-01T20:53:04;6.20;;;4.00;;
15002;SDS011;7597;53.590;10.020;2023-04-01T20:55:38;6.00;;;3.97;;
15002;SDS011;7597;53.590;10.020;2023-04-01T20:58:05;5.18;;;3.80;;
15002;SDS011;7597;53.590;10.020;2023-04-01T21:00:36;6.87;;;4.07;;
15002;SDS011;7597;53.590;10.020;2023-04-01T21:03:06;0.10;;;0.10;;
15002;SDS011;7597;53.590;10.020;2023-04-01T21:05:51;0.03;;;0.03;;
15002;SDS011;7597;53.590;10.020;2023-04-01T21:08:23;0.00;;;0.00;;
15002;SDS011;7597;53.590;10.020;2023-04-01T21:10:57;0.10;;;0.10;;
15002;SDS011;7597;53.590;10.020;2023-04-01T21:16:41;0.00;;;0.00;;
15002;SDS011;7597;53.590;10.020;2023-04-01T21:19:31;6.65;;;3.87;;
15002;SDS011;7597;53.590;10.020;2023-04-01T21:21:46;7.40;;;3.95;;
15002;SDS011;7597;53.590;10.020;2023-04-01T21:27:03;0.00;;;0.00;;
15002;SDS011;7597;53.590;10.020;2023-04-01T21:29:47;4.18;;;2.70;;
15002;SDS011;7597;53.590;10.020;2023-04-01T21:32:19;7.37;;;4.28;;
15002;SDS011;7597;53.590;10.020;2023-04-01T21:34:49;0.00;;;0.00;;
15002;SDS011;7597;53.590;10.020;2023-04-01T21:42:44;6.95;;;3.83;;
15002;SDS011;7597;53.590;10.020;2023-04-01T21:45:12;9.63;;;4.47;;
15002;SDS011;7597;53.590;10.020;2023-04-01T21:47:44;8.63;;;4.75;;
15002;SDS011;7597;53.590;10.020;2023-04-01T21:50:12;7.80;;;4.62;;
15002;SDS011;7597;53.590;10.020;2023-04-01T21:52:47;0.00;;;0.00;;
15002;SDS011;7597;53.590;10.020;2023-04-01T22:00:33;7.90;;;4.20;;
15002;SDS011;7597;53.590;10.020;2023-04-01T22:03:11;0.40;;;0.40;;
15002;SDS011;7597;53.590;10.020;2023-04-01T22:10:51;9.30;;;3.60;;
15002;SDS011;7597;53.590;10.020;2023-04-01T22:13:23;10.27;;;3.50;;
15002;SDS011;7597;53.590;10.020;2023-04-01T22:15:57;6.85;;;3.15;;
15002;SDS011;7597;53.590;10.020;2023-04-01T22:18:23;4.57;;;2.93;;
15002;SDS011;7597;53.590;10.020;2023-04-01T22:20:53;8.77;;;2.93;;
15002;SDS011;7597;53.590;10.020;2023-04-01T22:23:20;0.10;;;0.10;;
15002;SDS011;7597;53.590;10.020;2023-04-01T22:25:49;0.00;;;0.00;;
15002;SDS011;7597;53.590;10.020;2023-04-01T22:28:16;0.00;;;0.00;;
15002;SDS011;7597;53.590;10.020;2023-04-01T22:30:48;0.00;;;0.00;;
15002;SDS011;7597;53.590;10.020;2023-04-01T22:33:21;0.90;;;0.90;;
15002;SDS011;7597;53.590;10.020;2023-04-01T22:35:51;0.00;;;0.00;;
15002;SDS011;7597;53.590;10.020;2023-04-01T22:40:58;0.00;;;0.00;;
15002;SDS011;7597;53.590;10.020;2023-04-01T22:43:39;0.00;;;0.00;;
15002;SDS011;7597;53.590;10.020;2023-04-01T22:46:13;0.00;;;0.00;;
15002;SDS011;7597;53.590;10.020;2023-04-01T22:48:41;0.00;;;0.00;;
15002;SDS011;7597;53.590;10.020;2023-04-01T22:51:15;0.00;;;0.00;;
15002;SDS011;7597;53.590;10.020;2023-04-01T22:56:35;0.20;;;0.20;;
15002;SDS011;7597;53.590;10.020;2023-04-01T22:59:04;0.00;;;0.00;;
15002;SDS011;7597;53.590;10.020;2023-04-01T23:01:32;0.00;;;0.00;;
15002;SDS011;7597;53.590;10.020;2023-04-01T23:03:58;4.53;;;1.65;;
15002;SDS011;7597;53.590;10.020;2023-04-01T23:06:27;5.07;;;2.65;;
15002;SDS011;7597;53.590;10.020;2023-04-01T23:09:02;7.00;;;2.97;;
15002;SDS011;7597;53.590;10.020;2023-04-01T23:11:33;5.65;;;2.33;;
15002;SDS011;7597;53.590;10.020;2023-04-01T23:16:48;4.68;;;2.67;;
15002;SDS011;7597;53.590;10.020;2023-04-01T23:19:20;7.43;;;2.90;;
15002;SDS011;7597;53.590;10.020;2023-04-01T23:21:51;5.30;;;2.80;;
15002;SDS011;7597;53.590;10.020;2023-04-01T23:24:20;6.40;;;2.50;;
15002;SDS011;7597;53.590;10.020;2023-04-01T23:26:50;5.10;;;2.45;;
15002;SDS011;7597;53.590;10.020;2023-04-01T23:29:16;6.60;;;2.65;;
15002;SDS011;7597;53.590;10.020;2023-04-01T23:31:45;5.87;;;2.53;;
15002;SDS011;7597;53.590;10.020;2023-04-01T23:34:20;5.82;;;2.45;;
15002;SDS011;7597;53.590;10.020;2023-04-01T23:36:47;5.55;;;2.40;;
15002;SDS011;7597;53.590;10.020;2023-04-01T23:39:32;5.25;;;2.40;;
15002;SDS011;7597;53.590;10.020;2023-04-01T23:42:00;6.37;;;2.60;;
15002;SDS011;7597;53.590;10.020;2023-04-01T23:44:27;5.07;;;2.30;;
15002;SDS011;7597;53.590;10.020;2023-04-01T23:46:55;5.70;;;2.62;;
15002;SDS011;7597;53.590;10.020;2023-04-01T23:49:25;6.23;;;2.23;;
15002;SDS011;7597;53.590;10.020;2023-04-01T23:51:53;5.95;;;2.30;;
15002;SDS011;7597;53.590;10.020;2023-04-01T23:54:25;4.57;;;2.35;;
15002;SDS011;7597;53.590;10.020;2023-04-01T23:56:52;4.18;;;2.20;;
15002;SDS011;7597;53.590;10.020;2023-04-01T23:59:27;5.90;;;2.20;;
